sensor_id;sensor_type;location;lat;lon;timestamp;P1;durP1;ratioP1;P2;durP2;ratioP2
55346;SDS011;41218;55.700;38.270;2022-09-30T00:09:30;16.38;;;6.22;;
55346;SDS011;41218;55.700;38.270;2022-09-30T00:14:30;19.77;;;6.70;;
55346;SDS011;41218;55.700;38.270;2022-09-30T00:19:31;14.00;;;6.37;;
55346;SDS011;41218;55.700;38.270;2022-09-30T00:24:31;13.37;;;6.13;;
55346;SDS011;41218;55.700;38.270;2022-09-30T00:29:32;13.47;;;6.20;;
55346;SDS011;41218;55.700;38.270;2022-09-30T00:34:32;16.53;;;6.90;;
55346;SDS011;41218;55.700;38.270;2022-09-30T00:39:33;15.50;;;6.40;;
55346;SDS011;41218;55.700;38.270;2022-09-30T00:44:49;12.57;;;5.90;;
55346;SDS011;41218;55.700;38.270;2022-09-30T00:49:52;15.35;;;6.47;;
55346;SDS011;41218;55.700;38.270;2022-09-30T00:54:57;16.52;;;6.85;;
55346;SDS011;41218;55.700;38.270;2022-09-30T01:00:00;15.60;;;6.63;;
55346;SDS011;41218;55.700;38.270;2022-09-30T01:05:02;17.40;;;7.45;;
55346;SDS011;41218;55.700;38.270;2022-09-30T01:10:03;15.07;;;6.45;;
55346;SDS011;41218;55.700;38.270;2022-09-30T01:15:04;14.70;;;6.28;;
55346;SDS011;41218;55.700;38.270;2022-09-30T01:20:12;14.48;;;6.90;;
55346;SDS011;41218;55.700;38.270;2022-09-30T01:31:16;11.95;;;5.68;;
55346;SDS011;41218;55.700;38.270;2022-09-30T01:42:05;11.32;;;5.18;;
55346;SDS011;41218;55.700;38.270;2022-09-30T01:52:51;14.05;;;6.72;;
55346;SDS011;41218;55.700;38.270;2022-09-30T01:58:13;12.32;;;6.10;;
55346;SDS011;41218;55.700;38.270;2022-09-30T02:03:17;12.05;;;5.40;;
55346;SDS011;41218;55.700;38.270;2022-09-30T02:19:00;14.55;;;6.30;;
55346;SDS011;41218;55.700;38.270;2022-09-30T02:24:09;14.02;;;6.03;;
55346;SDS011;41218;55.700;38.270;2022-09-30T02:29:14;14.05;;;6.10;;
55346;SDS011;41218;55.700;38.270;2022-09-30T02:34:24;12.55;;;5.78;;
55346;SDS011;41218;55.700;38.270;2022-09-30T02:44:33;13.80;;;6.00;;
55346;SDS011;41218;55.700;38.270;2022-09-30T02:49:51;14.65;;;5.78;;
55346;SDS011;41218;55.700;38.270;2022-09-30T03:05:12;11.07;;;5.00;;
55346;SDS011;41218;55.700;38.270;2022-09-30T03:10:14;11.83;;;4.90;;
55346;SDS011;41218;55.700;38.270;2022-09-30T03:15:19;11.82;;;5.78;;
55346;SDS011;41218;55.700;38.270;2022-09-30T03:25:46;11.85;;;5.90;;
55346;SDS011;41218;55.700;38.270;2022-09-30T03:36:18;12.15;;;5.57;;
55346;SDS011;41218;55.700;38.270;2022-09-30T03:51:34;12.52;;;5.45;;
55346;SDS011;41218;55.700;38.270;2022-09-30T03:56:37;11.48;;;5.13;;
55346;SDS011;41218;55.700;38.270;2022-09-30T04:01:42;13.48;;;6.22;;
55346;SDS011;41218;55.700;38.270;2022-09-30T04:06:42;13.17;;;6.00;;
55346;SDS011;41218;55.700;38.270;2022-09-30T04:11:43;13.15;;;6.40;;
55346;SDS011;41218;55.700;38.270;2022-09-30T04:16:43;13.17;;;6.20;;
55346;SDS011;41218;55.700;38.270;2022-09-30T04:21:44;11.87;;;5.73;;
55346;SDS011;41218;55.700;38.270;2022-09-30T04:26:45;14.30;;;6.30;;
55346;SDS011;41218;55.700;38.270;2022-09-30T04:31:45;15.13;;;6.63;;
55346;SDS011;41218;55.700;38.270;2022-09-30T04:36:46;14.67;;;6.27;;
55346;SDS011;41218;55.700;38.270;2022-09-30T04:41:46;12.47;;;6.17;;
55346;SDS011;41218;55.700;38.270;2022-09-30T04:46:47;14.20;;;6.43;;
55346;SDS011;41218;55.700;38.270;2022-09-30T04:51:47;15.93;;;7.50;;
55346;SDS011;41218;55.700;38.270;2022-09-30T04:56:48;15.63;;;6.47;;
55346;SDS011;41218;55.700;38.270;2022-09-30T05:01:49;12.53;;;6.07;;
55346;SDS011;41218;55.700;38.270;2022-09-30T05:06:49;17.43;;;7.77;;
55346;SDS011;41218;55.700;38.270;2022-09-30T05:11:50;22.80;;;8.40;;
55346;SDS011;41218;55.700;38.270;2022-09-30T05:16:51;17.23;;;7.60;;
55346;SDS011;41218;55.700;38.270;2022-09-30T05:21:51;16.03;;;7.40;;
55346;SDS011;41218;55.700;38.270;2022-09-30T05:26:52;17.63;;;7.07;;
55346;SDS011;41218;55.700;38.270;2022-09-30T05:31:52;16.00;;;7.47;;
55346;SDS011;41218;55.700;38.270;2022-09-30T05:36:54;18.13;;;8.15;;
55346;SDS011;41218;55.700;38.270;2022-09-30T05:41:56;19.75;;;8.38;;
55346;SDS011;41218;55.700;38.270;2022-09-30T05:46:57;17.27;;;8.38;;
55346;SDS011;41218;55.700;38.270;2022-09-30T05:51:58;19.45;;;8.55;;
55346;SDS011;41218;55.700;38.270;2022-09-30T05:56:59;20.33;;;8.70;;
55346;SDS011;41218;55.700;38.270;2022-09-30T06:02:00;21.65;;;8.65;;
55346;SDS011;41218;55.700;38.270;2022-09-30T06:07:00;22.60;;;9.07;;
55346;SDS011;41218;55.700;38.270;2022-09-30T06:12:01;22.63;;;9.40;;
55346;SDS011;41218;55.700;38.270;2022-09-30T06:17:02;26.92;;;10.15;;
55346;SDS011;41218;55.700;38.270;2022-09-30T06:22:04;23.42;;;9.43;;
55346;SDS011;41218;55.700;38.270;2022-09-30T06:27:04;23.20;;;9.23;;
55346;SDS011;41218;55.700;38.270;2022-09-30T06:32:05;22.00;;;9.23;;
55346;SDS011;41218;55.700;38.270;2022-09-30T06:37:06;24.17;;;9.55;;
55346;SDS011;41218;55.700;38.270;2022-09-30T06:42:07;22.47;;;9.77;;
55346;SDS011;41218;55.700;38.270;2022-09-30T06:47:07;23.40;;;9.30;;
55346;SDS011;41218;55.700;38.270;2022-09-30T06:52:08;25.43;;;9.07;;
55346;SDS011;41218;55.700;38.270;2022-09-30T06:57:12;22.60;;;9.60;;
55346;SDS011;41218;55.700;38.270;2022-09-30T07:02:12;19.52;;;8.57;;
55346;SDS011;41218;55.700;38.270;2022-09-30T07:07:13;21.30;;;9.43;;
55346;SDS011;41218;55.700;38.270;2022-09-30T07:12:14;22.98;;;8.98;;
55346;SDS011;41218;55.700;38.270;2022-09-30T07:17:14;21.07;;;8.83;;
55346;SDS011;41218;55.700;38.270;2022-09-30T07:22:15;20.23;;;8.23;;
55346;SDS011;41218;55.700;38.270;2022-09-30T07:27:30;16.85;;;8.30;;
55346;SDS011;41218;55.700;38.270;2022-09-30T07:32:31;17.65;;;8.30;;
55346;SDS011;41218;55.700;38.270;2022-09-30T07:37:32;18.73;;;8.40;;
55346;SDS011;41218;55.700;38.270;2022-09-30T07:42:38;15.13;;;8.10;;
55346;SDS011;41218;55.700;38.270;2022-09-30T07:47:44;19.00;;;8.20;;
55346;SDS011;41218;55.700;38.270;2022-09-30T07:52:45;15.90;;;7.43;;
55346;SDS011;41218;55.700;38.270;2022-09-30T07:57:45;14.17;;;7.10;;
55346;SDS011;41218;55.700;38.270;2022-09-30T08:02:46;17.10;;;7.73;;
55346;SDS011;41218;55.700;38.270;2022-09-30T08:07:46;14.37;;;7.13;;
55346;SDS011;41218;55.700;38.270;2022-09-30T08:12:47;14.05;;;7.45;;
55346;SDS011;41218;55.700;38.270;2022-09-30T08:17:48;17.97;;;7.70;;
55346;SDS011;41218;55.700;38.270;2022-09-30T08:22:52;16.87;;;7.97;;
55346;SDS011;41218;55.700;38.270;2022-09-30T08:27:53;16.92;;;7.60;;
55346;SDS011;41218;55.700;38.270;2022-09-30T08:32:53;13.83;;;6.87;;
55346;SDS011;41218;55.700;38.270;2022-09-30T08:37:54;14.43;;;7.63;;
55346;SDS011;41218;55.700;38.270;2022-09-30T08:53:16;17.38;;;8.27;;
55346;SDS011;41218;55.700;38.270;2022-09-30T08:58:36;19.90;;;9.05;;
55346;SDS011;41218;55.700;38.270;2022-09-30T09:03:40;15.63;;;8.25;;
55346;SDS011;41218;55.700;38.270;2022-09-30T09:14:23;16.33;;;8.13;;
55346;SDS011;41218;55.700;38.270;2022-09-30T09:19:42;15.70;;;8.65;;
55346;SDS011;41218;55.700;38.270;2022-09-30T09:24:51;18.17;;;7.90;;
55346;SDS011;41218;55.700;38.270;2022-09-30T09:35:05;13.50;;;7.55;;
55346;SDS011;41218;55.700;38.270;2022-09-30T09:45:59;15.10;;;7.45;;
55346;SDS011;41218;55.700;38.270;2022-09-30T09:56:32;16.25;;;6.90;;
55346;SDS011;41218;55.700;38.270;2022-09-30T10:01:37;13.63;;;7.40;;
55346;SDS011;41218;55.700;38.270;2022-09-30T10:12:37;13.07;;;6.93;;
55346;SDS011;41218;55.700;38.270;2022-09-30T10:17:45;16.90;;;6.90;;
55346;SDS011;41218;55.700;38.270;2022-09-30T10:22:39;12.55;;;6.80;;
55346;SDS011;41218;55.700;38.270;2022-09-30T10:33:09;14.02;;;7.95;;
55346;SDS011;41218;55.700;38.270;2022-09-30T10:38:22;13.57;;;7.45;;
55346;SDS011;41218;55.700;38.270;2022-09-30T10:43:43;11.73;;;6.68;;
55346;SDS011;41218;55.700;38.270;2022-09-30T10:48:48;12.35;;;6.93;;
55346;SDS011;41218;55.700;38.270;2022-09-30T10:53:52;12.50;;;7.78;;
55346;SDS011;41218;55.700;38.270;2022-09-30T10:58:54;13.18;;;7.40;;
55346;SDS011;41218;55.700;38.270;2022-09-30T11:04:04;10.55;;;6.32;;
55346;SDS011;41218;55.700;38.270;2022-09-30T11:14:37;18.20;;;7.78;;
55346;SDS011;41218;55.700;38.270;2022-09-30T11:24:57;12.82;;;7.28;;
55346;SDS011;41218;55.700;38.270;2022-09-30T11:35:22;15.10;;;8.07;;
55346;SDS011;41218;55.700;38.270;2022-09-30T11:51:28;14.20;;;8.05;;
55346;SDS011;41218;55.700;38.270;2022-09-30T11:56:44;14.95;;;8.02;;
55346;SDS011;41218;55.700;38.270;2022-09-30T12:01:55;15.02;;;8.48;;
55346;SDS011;41218;55.700;38.270;2022-09-30T12:07:15;14.15;;;7.78;;
55346;SDS011;41218;55.700;38.270;2022-09-30T12:12:20;15.13;;;9.00;;
55346;SDS011;41218;55.700;38.270;2022-09-30T12:17:28;14.85;;;8.95;;
55346;SDS011;41218;55.700;38.270;2022-09-30T12:22:37;14.13;;;8.48;;
55346;SDS011;41218;55.700;38.270;2022-09-30T12:28:02;14.40;;;8.32;;
55346;SDS011;41218;55.700;38.270;2022-09-30T12:49:52;15.68;;;8.75;;
55346;SDS011;41218;55.700;38.270;2022-09-30T12:54:56;17.50;;;9.38;;
55346;SDS011;41218;55.700;38.270;2022-09-30T13:00:05;15.07;;;9.23;;
55346;SDS011;41218;55.700;38.270;2022-09-30T13:10:46;17.50;;;9.77;;
55346;SDS011;41218;55.700;38.270;2022-09-30T13:15:56;16.52;;;9.98;;
55346;SDS011;41218;55.700;38.270;2022-09-30T13:31:21;15.20;;;9.93;;
55346;SDS011;41218;55.700;38.270;2022-09-30T13:36:55;18.48;;;10.45;;
55346;SDS011;41218;55.700;38.270;2022-09-30T13:42:10;19.95;;;9.98;;
55346;SDS011;41218;55.700;38.270;2022-09-30T13:47:30;14.50;;;9.68;;
55346;SDS011;41218;55.700;38.270;2022-09-30T13:52:38;17.23;;;9.38;;
55346;SDS011;41218;55.700;38.270;2022-09-30T14:13:44;16.70;;;10.13;;
55346;SDS011;41218;55.700;38.270;2022-09-30T14:29:13;17.58;;;10.57;;
55346;SDS011;41218;55.700;38.270;2022-09-30T14:34:22;17.67;;;10.68;;
55346;SDS011;41218;55.700;38.270;2022-09-30T14:39:26;20.90;;;11.32;;
55346;SDS011;41218;55.700;38.270;2022-09-30T14:44:29;22.35;;;11.32;;
55346;SDS011;41218;55.700;38.270;2022-09-30T14:49:35;17.55;;;10.52;;
55346;SDS011;41218;55.700;38.270;2022-09-30T14:59:46;18.38;;;10.52;;
55346;SDS011;41218;55.700;38.270;2022-09-30T15:04:47;16.23;;;10.13;;
55346;SDS011;41218;55.700;38.270;2022-09-30T15:09:52;19.33;;;11.55;;
55346;SDS011;41218;55.700;38.270;2022-09-30T15:14:54;21.13;;;11.07;;
55346;SDS011;41218;55.700;38.270;2022-09-30T15:19:57;20.33;;;11.80;;
55346;SDS011;41218;55.700;38.270;2022-09-30T15:24:58;21.98;;;12.40;;
55346;SDS011;41218;55.700;38.270;2022-09-30T15:30:00;21.48;;;11.73;;
55346;SDS011;41218;55.700;38.270;2022-09-30T15:35:04;21.40;;;11.52;;
55346;SDS011;41218;55.700;38.270;2022-09-30T15:40:12;20.90;;;10.90;;
55346;SDS011;41218;55.700;38.270;2022-09-30T15:45:40;18.70;;;10.70;;
55346;SDS011;41218;55.700;38.270;2022-09-30T15:50:46;20.08;;;11.57;;
55346;SDS011;41218;55.700;38.270;2022-09-30T15:55:49;19.52;;;11.55;;
55346;SDS011;41218;55.700;38.270;2022-09-30T16:06:11;23.13;;;11.90;;
55346;SDS011;41218;55.700;38.270;2022-09-30T16:11:25;21.80;;;11.50;;
55346;SDS011;41218;55.700;38.270;2022-09-30T16:16:29;21.88;;;11.35;;
55346;SDS011;41218;55.700;38.270;2022-09-30T16:26:43;21.50;;;11.20;;
55346;SDS011;41218;55.700;38.270;2022-09-30T16:31:45;21.67;;;11.57;;
55346;SDS011;41218;55.700;38.270;2022-09-30T16:36:47;22.88;;;12.23;;
55346;SDS011;41218;55.700;38.270;2022-09-30T16:41:48;20.00;;;11.18;;
55346;SDS011;41218;55.700;38.270;2022-09-30T16:46:50;22.10;;;11.20;;
55346;SDS011;41218;55.700;38.270;2022-09-30T16:51:50;19.88;;;11.20;;
55346;SDS011;41218;55.700;38.270;2022-09-30T16:56:51;19.27;;;11.10;;
55346;SDS011;41218;55.700;38.270;2022-09-30T17:01:52;20.00;;;11.00;;
55346;SDS011;41218;55.700;38.270;2022-09-30T17:06:55;19.90;;;11.40;;
55346;SDS011;41218;55.700;38.270;2022-09-30T17:11:56;20.92;;;11.60;;
55346;SDS011;41218;55.700;38.270;2022-09-30T17:17:00;22.92;;;12.02;;
55346;SDS011;41218;55.700;38.270;2022-09-30T17:22:01;23.57;;;11.77;;
55346;SDS011;41218;55.700;38.270;2022-09-30T17:27:02;21.70;;;11.05;;
55346;SDS011;41218;55.700;38.270;2022-09-30T17:32:03;21.75;;;11.07;;
55346;SDS011;41218;55.700;38.270;2022-09-30T17:37:03;20.60;;;11.23;;
55346;SDS011;41218;55.700;38.270;2022-09-30T17:42:04;20.20;;;11.32;;
55346;SDS011;41218;55.700;38.270;2022-09-30T17:47:24;20.60;;;10.77;;
55346;SDS011;41218;55.700;38.270;2022-09-30T17:52:25;17.77;;;10.70;;
55346;SDS011;41218;55.700;38.270;2022-09-30T17:57:26;20.38;;;10.38;;
55346;SDS011;41218;55.700;38.270;2022-09-30T18:07:28;19.45;;;10.15;;
55346;SDS011;41218;55.700;38.270;2022-09-30T18:12:28;18.17;;;10.40;;
55346;SDS011;41218;55.700;38.270;2022-09-30T18:17:29;18.97;;;10.13;;
55346;SDS011;41218;55.700;38.270;2022-09-30T18:22:30;20.77;;;10.82;;
55346;SDS011;41218;55.700;38.270;2022-09-30T18:27:30;19.33;;;10.60;;
55346;SDS011;41218;55.700;38.270;2022-09-30T18:32:32;17.98;;;9.70;;
55346;SDS011;41218;55.700;38.270;2022-09-30T18:37:33;16.50;;;9.50;;
55346;SDS011;41218;55.700;38.270;2022-09-30T18:42:34;20.17;;;9.77;;
55346;SDS011;41218;55.700;38.270;2022-09-30T18:47:39;21.00;;;10.25;;
55346;SDS011;41218;55.700;38.270;2022-09-30T18:52:44;19.98;;;10.77;;
55346;SDS011;41218;55.700;38.270;2022-09-30T18:57:44;18.97;;;10.10;;
55346;SDS011;41218;55.700;38.270;2022-09-30T19:02:50;17.60;;;10.20;;
55346;SDS011;41218;55.700;38.270;2022-09-30T19:07:52;18.67;;;9.52;;
55346;SDS011;41218;55.700;38.270;2022-09-30T19:12:52;17.42;;;9.68;;
55346;SDS011;41218;55.700;38.270;2022-09-30T19:17:53;17.80;;;9.80;;
55346;SDS011;41218;55.700;38.270;2022-09-30T19:27:54;17.50;;;9.63;;
55346;SDS011;41218;55.700;38.270;2022-09-30T19:37:59;18.75;;;9.82;;
55346;SDS011;41218;55.700;38.270;2022-09-30T19:43:00;20.63;;;9.93;;
55346;SDS011;41218;55.700;38.270;2022-09-30T19:48:01;20.33;;;9.32;;
55346;SDS011;41218;55.700;38.270;2022-09-30T19:53:02;18.70;;;10.20;;
55346;SDS011;41218;55.700;38.270;2022-09-30T19:58:02;19.65;;;10.55;;
55346;SDS011;41218;55.700;38.270;2022-09-30T20:03:03;17.92;;;9.35;;
55346;SDS011;41218;55.700;38.270;2022-09-30T20:08:03;20.20;;;9.83;;
55346;SDS011;41218;55.700;38.270;2022-09-30T20:13:04;17.90;;;8.93;;
55346;SDS011;41218;55.700;38.270;2022-09-30T20:18:04;18.87;;;8.90;;
55346;SDS011;41218;55.700;38.270;2022-09-30T20:23:05;17.07;;;8.73;;
55346;SDS011;41218;55.700;38.270;2022-09-30T20:28:05;15.40;;;8.93;;
55346;SDS011;41218;55.700;38.270;2022-09-30T20:33:07;15.35;;;8.50;;
55346;SDS011;41218;55.700;38.270;2022-09-30T20:38:08;18.10;;;8.60;;
55346;SDS011;41218;55.700;38.270;2022-09-30T20:43:14;14.75;;;8.77;;
55346;SDS011;41218;55.700;38.270;2022-09-30T20:48:15;16.33;;;8.30;;
55346;SDS011;41218;55.700;38.270;2022-09-30T20:53:15;18.43;;;8.73;;
55346;SDS011;41218;55.700;38.270;2022-09-30T20:58:16;13.32;;;7.65;;
55346;SDS011;41218;55.700;38.270;2022-09-30T21:03:17;15.50;;;8.30;;
55346;SDS011;41218;55.700;38.270;2022-09-30T21:08:18;14.57;;;7.97;;
55346;SDS011;41218;55.700;38.270;2022-09-30T21:13:18;18.13;;;8.38;;
55346;SDS011;41218;55.700;38.270;2022-09-30T21:18:19;17.17;;;8.43;;
55346;SDS011;41218;55.700;38.270;2022-09-30T21:23:19;15.30;;;8.57;;
55346;SDS011;41218;55.700;38.270;2022-09-30T21:28:20;16.33;;;9.23;;
55346;SDS011;41218;55.700;38.270;2022-09-30T21:38:22;21.00;;;9.65;;
55346;SDS011;41218;55.700;38.270;2022-09-30T21:43:24;16.63;;;9.13;;
55346;SDS011;41218;55.700;38.270;2022-09-30T21:48:25;18.50;;;9.55;;
55346;SDS011;41218;55.700;38.270;2022-09-30T21:58:27;19.20;;;9.27;;
55346;SDS011;41218;55.700;38.270;2022-09-30T22:03:31;13.18;;;7.28;;
55346;SDS011;41218;55.700;38.270;2022-09-30T22:08:37;13.05;;;7.40;;
55346;SDS011;41218;55.700;38.270;2022-09-30T22:13:42;14.52;;;7.72;;
55346;SDS011;41218;55.700;38.270;2022-09-30T22:18:44;13.65;;;7.78;;
55346;SDS011;41218;55.700;38.270;2022-09-30T22:23:45;19.92;;;9.50;;
55346;SDS011;41218;55.700;38.270;2022-09-30T22:28:47;17.20;;;9.80;;
55346;SDS011;41218;55.700;38.270;2022-09-30T22:33:56;14.85;;;8.23;;
55346;SDS011;41218;55.700;38.270;2022-09-30T22:39:17;15.90;;;8.57;;
55346;SDS011;41218;55.700;38.270;2022-09-30T22:44:17;15.15;;;8.45;;
55346;SDS011;41218;55.700;38.270;2022-09-30T22:49:19;11.80;;;6.93;;
55346;SDS011;41218;55.700;38.270;2022-09-30T22:59:21;14.13;;;7.93;;
55346;SDS011;41218;55.700;38.270;2022-09-30T23:04:23;17.45;;;8.57;;
55346;SDS011;41218;55.700;38.270;2022-09-30T23:09:25;13.35;;;7.85;;
55346;SDS011;41218;55.700;38.270;2022-09-30T23:14:26;15.47;;;8.43;;
55346;SDS011;41218;55.700;38.270;2022-09-30T23:19:26;16.67;;;8.77;;
55346;SDS011;41218;55.700;38.270;2022-09-30T23:24:27;13.77;;;7.37;;
55346;SDS011;41218;55.700;38.270;2022-09-30T23:29:30;12.00;;;6.97;;
55346;SDS011;41218;55.700;38.270;2022-09-30T23:34:30;13.07;;;7.20;;
55346;SDS011;41218;55.700;38.270;2022-09-30T23:39:31;12.60;;;7.63;;
55346;SDS011;41218;55.700;38.270;2022-09-30T23:44:31;13.20;;;7.13;;
55346;SDS011;41218;55.700;38.270;2022-09-30T23:49:32;14.43;;;7.40;;
55346;SDS011;41218;55.700;38.270;2022-09-30T23:54:34;13.05;;;7.10;;
55346;SDS011;41218;55.700;38.270;2022-09-30T23:59:35;10.93;;;6.85;;
